Port-Daniel, Canada
Current Conditions -  °F | °C
As of 9:00 AM on Monday 26 Jan 2015 (Local Time) from CYGP Reporting Station
Scattered Clouds Scattered Clouds  
Wind Chill: -15°   Ceiling: Unl
Heat Index:   Visibility: 15mi
Dew Point: -9°   Wind: 14mph
Humidity: 56%   Direction: 280°W
Pressure: 29.97"   Gusts: 25mph
Location:  48.18°N, 64.98°W
Report Text: CYGP 261400Z 28012G22KT 15SM SCT030 M16/M23 A2997 RMK SC4 SLP152
Loading
Personal Weather Stations






























Interactive Weather Map New forecast layout! Learn more

10-Day Weather Forecast

Advertisements
Track Severe Weather on mobile